createdAt,value
2022-08-09T00:00:08.185Z,21.45
2022-08-09T00:02:49.140Z,21.34
2022-08-09T00:06:17.783Z,21.29
2022-08-09T00:08:13.138Z,21.35
2022-08-09T00:10:58.842Z,21.33
2022-08-09T00:13:25.658Z,21.32
2022-08-09T00:15:58.986Z,21.32
2022-08-09T00:18:29.586Z,21.32
2022-08-09T00:20:56.550Z,21.29
2022-08-09T00:23:57.174Z,21.30
2022-08-09T00:26:12.359Z,21.23
2022-08-09T00:28:42.142Z,21.19
2022-08-09T00:31:57.191Z,21.18
2022-08-09T00:34:10.839Z,21.17
2022-08-09T00:36:38.084Z,21.14
2022-08-09T00:39:07.157Z,21.12
2022-08-09T00:44:17.148Z,21.06
2022-08-09T00:44:31.439Z,21.03
2022-08-09T00:47:04.817Z,20.98
2022-08-09T00:49:36.948Z,20.89
2022-08-09T00:52:17.474Z,20.82
2022-08-09T00:54:46.040Z,20.77
2022-08-09T00:57:13.679Z,20.82
2022-08-09T00:59:47.227Z,20.81
2022-08-09T01:02:25.099Z,20.79
2022-08-09T01:04:56.967Z,20.77
2022-08-09T01:08:00.492Z,20.76
2022-08-09T01:10:58.234Z,20.70
2022-08-09T01:13:58.701Z,20.69
2022-08-09T01:16:35.941Z,20.63
2022-08-09T01:19:40.104Z,20.57
2022-08-09T01:22:32.370Z,20.55
2022-08-09T01:25:23.902Z,20.46
2022-08-09T01:27:57.780Z,20.44
2022-08-09T01:30:33.578Z,20.41
2022-08-09T01:33:03.507Z,20.36
2022-08-09T01:35:39.232Z,20.38
2022-08-09T01:38:16.544Z,20.33
2022-08-09T01:41:25.907Z,20.34
2022-08-09T01:43:58.706Z,20.35
2022-08-09T01:46:28.786Z,20.32
2022-08-09T01:49:09.427Z,20.21
2022-08-09T01:51:44.550Z,20.07
2022-08-09T01:54:25.946Z,20.00
2022-08-09T01:56:55.928Z,19.95
2022-08-09T01:59:24.511Z,19.93
2022-08-09T02:02:01.136Z,19.94
2022-08-09T02:04:31.953Z,20.00
2022-08-09T02:08:38.993Z,20.02
2022-08-09T02:10:12.338Z,19.98
2022-08-09T02:12:40.041Z,19.93
2022-08-09T02:15:11.782Z,19.90
2022-08-09T02:18:00.749Z,19.86
2022-08-09T02:20:34.170Z,19.84
2022-08-09T02:23:19.326Z,19.85
2022-08-09T02:25:52.713Z,19.86
2022-08-09T02:28:30.828Z,19.86
2022-08-09T02:31:07.262Z,19.80
2022-08-09T02:34:06.897Z,19.75
2022-08-09T02:36:35.658Z,19.72
2022-08-09T02:39:06.949Z,19.65
2022-08-09T02:41:49.806Z,19.61
2022-08-09T02:44:25.569Z,19.60
2022-08-09T02:47:00.173Z,19.59
2022-08-09T02:49:27.145Z,19.57
2022-08-09T02:52:07.761Z,19.53
2022-08-09T02:54:54.198Z,19.50
2022-08-09T02:57:25.504Z,19.49
2022-08-09T03:00:11.417Z,19.49
2022-08-09T03:02:58.431Z,19.44
2022-08-09T03:05:27.049Z,19.41
2022-08-09T03:07:56.861Z,19.43
2022-08-09T03:10:26.996Z,19.38
2022-08-09T03:12:55.264Z,19.30
2022-08-09T03:15:23.564Z,19.31
2022-08-09T03:17:57.774Z,19.29
2022-08-09T03:20:29.755Z,19.18
2022-08-09T03:23:06.510Z,19.16
2022-08-09T03:25:58.016Z,19.17
2022-08-09T03:28:26.867Z,19.20
2022-08-09T03:30:55.710Z,19.18
2022-08-09T03:33:24.446Z,19.16
2022-08-09T03:36:13.347Z,19.11
2022-08-09T03:38:44.491Z,19.09
2022-08-09T03:41:15.014Z,19.07
2022-08-09T03:44:03.590Z,19.05
2022-08-09T03:46:31.437Z,19.01
2022-08-09T03:49:03.785Z,19.00
2022-08-09T03:51:55.143Z,19.04
2022-08-09T03:54:29.743Z,19.03
2022-08-09T03:57:00.631Z,19.00
2022-08-09T03:59:42.948Z,18.93
2022-08-09T04:02:14.562Z,18.88
2022-08-09T04:04:46.376Z,18.88
2022-08-09T04:07:15.997Z,18.85
2022-08-09T04:09:48.215Z,18.85
2022-08-09T04:12:33.942Z,18.86
2022-08-09T04:15:11.169Z,18.80
2022-08-09T04:17:44.539Z,18.80
2022-08-09T04:20:14.667Z,18.79
2022-08-09T04:22:44.282Z,18.78
2022-08-09T04:25:11.619Z,18.80
2022-08-09T04:27:48.819Z,18.81
2022-08-09T04:30:18.040Z,18.80
2022-08-09T04:32:47.751Z,18.81
2022-08-09T04:35:15.343Z,18.82
2022-08-09T04:37:46.327Z,18.83
2022-08-09T04:40:28.625Z,18.80
2022-08-09T04:43:05.447Z,18.82
2022-08-09T04:45:36.220Z,18.81
2022-08-09T04:48:18.679Z,18.81
2022-08-09T04:50:45.199Z,18.79
2022-08-09T04:53:15.705Z,18.82
2022-08-09T04:55:59.111Z,18.85
2022-08-09T04:58:27.751Z,18.85
2022-08-09T05:00:55.373Z,18.91
2022-08-09T05:03:39.864Z,19.01
2022-08-09T05:06:27.255Z,19.15
2022-08-09T05:09:00.625Z,19.26
2022-08-09T05:11:30.513Z,19.33
2022-08-09T05:13:59.714Z,19.52
2022-08-09T05:16:31.486Z,19.63
2022-08-09T05:19:00.417Z,19.74
2022-08-09T05:21:29.858Z,19.80
2022-08-09T05:24:01.470Z,19.88
2022-08-09T05:26:36.956Z,19.88
2022-08-09T05:29:23.938Z,19.89
2022-08-09T05:31:58.360Z,19.92
2022-08-09T05:34:32.698Z,19.93
2022-08-09T05:37:04.863Z,20.03
2022-08-09T05:39:43.492Z,20.03
2022-08-09T05:42:20.523Z,20.08
2022-08-09T05:44:53.299Z,20.05
2022-08-09T05:47:22.749Z,20.12
2022-08-09T05:50:24.324Z,20.17
2022-08-09T05:52:39.569Z,20.40
2022-08-09T05:55:08.631Z,20.61
2022-08-09T05:57:50.428Z,20.77
2022-08-09T06:00:22.227Z,20.89
2022-08-09T06:02:49.451Z,20.98
2022-08-09T06:05:21.104Z,21.10
2022-08-09T06:08:09.265Z,21.24
2022-08-09T06:10:38.514Z,21.38
2022-08-09T06:13:19.049Z,21.27
2022-08-09T06:15:47.384Z,21.15
2022-08-09T06:18:24.065Z,21.10
2022-08-09T06:20:54.554Z,21.25
2022-08-09T06:23:58.856Z,21.44
2022-08-09T06:26:13.580Z,21.55
2022-08-09T06:28:43.471Z,21.76
2022-08-09T06:31:10.476Z,22.00
2022-08-09T06:33:40.531Z,22.21
2022-08-09T06:36:08.535Z,22.40
2022-08-09T06:38:37.408Z,22.38
2022-08-09T06:41:13.507Z,22.39
2022-08-09T06:43:46.304Z,22.57
2022-08-09T06:46:40.365Z,22.75
2022-08-09T06:49:00.437Z,22.78
2022-08-09T06:51:27.970Z,22.79
2022-08-09T06:53:55.519Z,22.76
2022-08-09T06:56:31.104Z,22.92
2022-08-09T07:00:50.574Z,23.10
2022-08-09T07:01:54.787Z,23.12
2022-08-09T07:04:25.034Z,23.11
2022-08-09T07:07:00.644Z,23.28
2022-08-09T07:09:55.985Z,23.46
2022-08-09T07:12:18.684Z,23.53
2022-08-09T07:14:51.031Z,23.62
2022-08-09T07:17:19.980Z,23.70
2022-08-09T07:19:48.627Z,23.74
2022-08-09T07:22:18.821Z,23.89
2022-08-09T07:25:02.327Z,24.00
2022-08-09T07:27:43.239Z,24.10
2022-08-09T07:30:21.709Z,24.27
2022-08-09T07:32:51.811Z,24.38
2022-08-09T07:35:19.565Z,24.42
2022-08-09T07:37:48.089Z,24.56
2022-08-09T07:40:20.771Z,24.73
2022-08-09T07:42:56.999Z,24.81
2022-08-09T07:45:40.377Z,24.79
2022-08-09T07:48:25.311Z,24.78
2022-08-09T07:51:09.158Z,24.96
2022-08-09T07:54:05.618Z,25.12
2022-08-09T07:56:34.219Z,25.14
2022-08-09T07:59:01.319Z,25.17
2022-08-09T08:01:34.015Z,25.19
2022-08-09T08:04:02.653Z,25.25
2022-08-09T08:06:32.216Z,25.45
2022-08-09T08:09:07.825Z,25.61
2022-08-09T08:12:27.248Z,25.76
2022-08-09T08:14:35.467Z,25.86
2022-08-09T08:17:07.539Z,26.01
2022-08-09T08:19:36.007Z,26.10
2022-08-09T08:22:04.137Z,26.13
2022-08-09T08:24:34.139Z,26.23
2022-08-09T08:27:17.244Z,26.32
2022-08-09T08:29:50.028Z,26.43
2022-08-09T08:32:24.584Z,26.52
2022-08-09T08:35:06.528Z,26.66
2022-08-09T08:37:41.659Z,26.79
2022-08-09T08:40:20.394Z,26.91
2022-08-09T08:42:47.605Z,26.99
2022-08-09T08:45:17.308Z,27.05
2022-08-09T08:48:05.836Z,27.08
2022-08-09T08:50:33.176Z,27.12
2022-08-09T08:53:02.503Z,27.11
2022-08-09T08:55:32.318Z,27.10
2022-08-09T08:57:59.259Z,27.25
2022-08-09T09:00:29.989Z,27.44
2022-08-09T09:03:11.085Z,27.58
2022-08-09T09:05:58.251Z,27.72
2022-08-09T09:08:37.906Z,27.69
2022-08-09T09:11:08.790Z,27.77
2022-08-09T09:13:56.526Z,27.76
2022-08-09T09:16:32.268Z,27.85
2022-08-09T09:19:36.509Z,28.07
2022-08-09T09:22:11.876Z,28.08
2022-08-09T09:24:51.359Z,28.11
2022-08-09T09:28:05.270Z,27.95
2022-08-09T09:30:40.040Z,27.92
2022-08-09T09:33:14.256Z,28.13
2022-08-09T09:36:00.472Z,28.24
2022-08-09T09:38:48.649Z,28.24
2022-08-09T09:41:27.861Z,28.37
2022-08-09T09:44:11.670Z,28.52
2022-08-09T09:46:51.581Z,28.55
2022-08-09T09:49:56.325Z,28.71
2022-08-09T09:52:35.742Z,28.79
2022-08-09T09:55:16.228Z,28.73
2022-08-09T09:58:16.696Z,28.70
2022-08-09T10:00:54.796Z,28.81
2022-08-09T10:03:44.089Z,28.95
2022-08-09T10:06:12.812Z,29.10
2022-08-09T10:08:55.132Z,29.19
2022-08-09T10:12:07.870Z,29.25
2022-08-09T10:14:33.637Z,29.32
2022-08-09T10:17:50.992Z,29.35
2022-08-09T10:19:58.713Z,29.37
2022-08-09T10:22:36.869Z,29.50
2022-08-09T10:25:11.849Z,29.59
2022-08-09T10:27:45.436Z,29.54
2022-08-09T10:34:04.877Z,29.56
2022-08-09T10:36:00.837Z,29.71
2022-08-09T10:38:41.731Z,29.63
2022-08-09T10:41:20.777Z,29.52
2022-08-09T10:43:59.381Z,29.58
2022-08-09T10:48:12.458Z,29.84
2022-08-09T10:50:05.994Z,29.96
2022-08-09T10:52:44.572Z,30.04
2022-08-09T10:55:28.030Z,30.08
2022-08-09T10:58:00.158Z,29.95
2022-08-09T11:00:34.398Z,30.00
2022-08-09T11:03:28.163Z,30.08
2022-08-09T11:06:26.379Z,30.18
2022-08-09T11:08:54.098Z,30.20
2022-08-09T11:11:23.469Z,30.18
2022-08-09T11:14:32.368Z,30.24
2022-08-09T11:16:59.745Z,30.19
2022-08-09T11:20:10.400Z,30.22
2022-08-09T11:22:43.166Z,30.41
2022-08-09T11:25:11.289Z,30.36
2022-08-09T11:28:05.115Z,30.46
2022-08-09T11:30:33.463Z,30.61
2022-08-09T11:33:10.820Z,30.51
2022-08-09T11:35:49.468Z,30.65
2022-08-09T11:38:18.084Z,30.62
2022-08-09T11:40:45.394Z,30.69
2022-08-09T11:43:17.696Z,30.77
2022-08-09T11:46:02.041Z,30.82
2022-08-09T11:48:49.288Z,30.93
2022-08-09T11:51:19.471Z,31.05
2022-08-09T11:54:27.864Z,30.95
2022-08-09T11:57:47.841Z,30.87
2022-08-09T12:00:27.745Z,30.90
2022-08-09T12:02:57.451Z,30.92
2022-08-09T12:05:42.414Z,31.10
2022-08-09T12:08:21.393Z,31.04
2022-08-09T12:10:54.441Z,30.90
2022-08-09T12:14:07.823Z,31.16
2022-08-09T12:16:30.242Z,31.20
2022-08-09T12:19:06.588Z,31.33
2022-08-09T12:21:38.778Z,31.51
2022-08-09T12:24:10.129Z,31.63
2022-08-09T12:29:11.816Z,31.68
2022-08-09T12:29:52.553Z,31.50
2022-08-09T12:32:26.956Z,31.50
2022-08-09T12:35:02.945Z,31.47
2022-08-09T12:37:44.302Z,31.44
2022-08-09T12:40:18.029Z,31.43
2022-08-09T12:42:46.701Z,31.62
2022-08-09T12:45:34.534Z,31.87
2022-08-09T12:48:10.831Z,31.82
2022-08-09T12:50:53.849Z,31.83
2022-08-09T12:53:32.098Z,32.00
2022-08-09T12:56:43.905Z,32.01
2022-08-09T12:59:16.818Z,32.02
2022-08-09T13:02:00.009Z,32.01
2022-08-09T13:04:37.836Z,31.78
2022-08-09T13:07:50.936Z,31.89
2022-08-09T13:10:18.134Z,31.81
2022-08-09T13:13:09.515Z,31.88
2022-08-09T13:15:36.017Z,31.92
2022-08-09T13:18:09.362Z,32.05
2022-08-09T13:21:04.127Z,32.01
2022-08-09T13:24:16.099Z,32.12
2022-08-09T13:26:42.566Z,32.16
2022-08-09T13:29:13.262Z,32.15
2022-08-09T13:32:17.132Z,32.21
2022-08-09T13:34:46.064Z,32.15
2022-08-09T13:37:13.064Z,32.11
2022-08-09T13:41:52.559Z,32.09
2022-08-09T13:42:39.263Z,32.02
2022-08-09T13:45:12.517Z,31.71
2022-08-09T13:47:48.979Z,31.80
2022-08-09T13:50:30.621Z,31.99
2022-08-09T13:52:58.373Z,32.24
2022-08-09T13:55:29.083Z,32.24
2022-08-09T13:57:58.414Z,32.21
2022-08-09T14:00:28.899Z,32.16
2022-08-09T14:03:02.991Z,32.08
2022-08-09T14:05:56.503Z,32.13
2022-08-09T14:08:29.720Z,32.18
2022-08-09T14:10:57.296Z,32.31
2022-08-09T14:14:14.696Z,32.49
2022-08-09T14:16:14.651Z,32.61
2022-08-09T14:18:45.647Z,32.57
2022-08-09T14:21:22.376Z,32.45
2022-08-09T14:23:54.230Z,32.45
2022-08-09T14:26:25.222Z,32.53
2022-08-09T14:28:52.369Z,32.58
2022-08-09T14:31:19.149Z,32.61
2022-08-09T14:33:52.292Z,32.73
2022-08-09T14:36:21.638Z,32.69
2022-08-09T14:38:52.566Z,32.65
2022-08-09T14:41:26.552Z,32.72
2022-08-09T14:44:06.910Z,32.71
2022-08-09T14:46:58.879Z,32.64
2022-08-09T14:49:23.595Z,32.70
2022-08-09T14:51:50.767Z,32.75
2022-08-09T14:54:27.503Z,32.86
2022-08-09T14:56:58.738Z,32.85
2022-08-09T14:59:28.560Z,32.89
2022-08-09T15:01:55.887Z,32.96
2022-08-09T15:04:23.489Z,32.90
2022-08-09T15:06:51.439Z,32.85
2022-08-09T15:10:03.778Z,32.77
2022-08-09T15:12:08.216Z,32.70
2022-08-09T15:14:38.315Z,32.66
2022-08-09T15:17:07.714Z,32.70
2022-08-09T15:19:36.606Z,32.66
2022-08-09T15:22:03.840Z,32.62
2022-08-09T15:24:32.270Z,32.69
2022-08-09T15:26:59.436Z,32.76
2022-08-09T15:30:55.370Z,32.70
2022-08-09T15:32:28.672Z,32.70
2022-08-09T15:35:00.654Z,32.77
2022-08-09T15:38:11.678Z,32.86
2022-08-09T15:40:43.848Z,32.83
2022-08-09T15:43:13.617Z,32.74
2022-08-09T15:45:52.086Z,32.76
2022-08-09T15:48:29.192Z,32.69
2022-08-09T15:50:58.567Z,32.60
2022-08-09T15:54:03.801Z,32.52
2022-08-09T15:56:21.402Z,32.35
2022-08-09T15:58:55.476Z,32.15
2022-08-09T16:01:22.127Z,32.13
2022-08-09T16:03:51.038Z,32.12
2022-08-09T16:06:35.147Z,32.05
2022-08-09T16:09:07.174Z,31.82
2022-08-09T16:11:34.079Z,31.56
2022-08-09T16:14:07.071Z,31.38
2022-08-09T16:16:41.957Z,31.25
2022-08-09T16:19:13.553Z,31.11
2022-08-09T16:21:41.250Z,31.02
2022-08-09T16:24:29.617Z,30.92
2022-08-09T16:26:56.923Z,30.90
2022-08-09T16:29:37.110Z,30.88
2022-08-09T16:32:18.418Z,30.84
2022-08-09T16:34:56.618Z,30.74
2022-08-09T16:37:53.502Z,30.68
2022-08-09T16:40:14.397Z,30.64
2022-08-09T16:42:56.071Z,30.55
2022-08-09T16:45:22.768Z,30.49
2022-08-09T16:48:40.588Z,30.45
2022-08-09T16:50:38.669Z,30.38
2022-08-09T16:53:05.996Z,30.31
2022-08-09T16:55:57.881Z,30.20
2022-08-09T16:58:21.204Z,30.13
2022-08-09T17:00:48.686Z,30.09
2022-08-09T17:03:21.493Z,30.05
2022-08-09T17:06:06.587Z,30.00
2022-08-09T17:08:44.437Z,29.98
2022-08-09T17:11:41.180Z,29.96
2022-08-09T17:14:28.074Z,29.89
2022-08-09T17:17:25.885Z,29.80
2022-08-09T17:20:29.826Z,29.74
2022-08-09T17:22:49.957Z,29.65
2022-08-09T17:25:18.269Z,29.61
2022-08-09T17:27:48.784Z,29.58
2022-08-09T17:30:16.715Z,29.53
2022-08-09T17:32:45.572Z,29.49
2022-08-09T17:35:13.302Z,29.45
2022-08-09T17:38:11.726Z,29.41
2022-08-09T17:40:33.270Z,29.37
2022-08-09T17:43:04.557Z,29.33
2022-08-09T17:46:03.518Z,29.33
2022-08-09T17:48:29.493Z,30.12
2022-08-09T17:51:01.723Z,31.12
2022-08-09T17:53:42.856Z,31.99
2022-08-09T17:56:10.007Z,32.87
2022-08-09T17:58:36.538Z,33.28
2022-08-09T18:01:03.146Z,33.39
2022-08-09T18:03:31.930Z,33.28
2022-08-09T18:06:00.955Z,33.22
2022-08-09T18:08:28.388Z,32.39
2022-08-09T18:11:02.379Z,31.12
2022-08-09T18:13:39.132Z,30.18
2022-08-09T18:16:10.352Z,29.58
2022-08-09T18:18:43.235Z,29.18
2022-08-09T18:21:23.059Z,28.91
2022-08-09T18:24:10.418Z,28.69
2022-08-09T18:26:38.203Z,28.53
2022-08-09T18:30:39.325Z,28.43
2022-08-09T18:31:59.781Z,28.32
2022-08-09T18:34:28.910Z,28.24
2022-08-09T18:36:55.556Z,28.18
2022-08-09T18:39:24.047Z,28.09
2022-08-09T18:41:52.982Z,28.00
2022-08-09T18:44:26.963Z,27.91
2022-08-09T18:47:07.381Z,27.83
2022-08-09T18:49:46.924Z,27.76
2022-08-09T18:52:18.535Z,27.67
2022-08-09T18:54:53.209Z,27.60
2022-08-09T18:57:22.290Z,27.52
2022-08-09T18:59:57.488Z,27.46
2022-08-09T19:02:31.678Z,27.39
2022-08-09T19:05:14.061Z,27.33
2022-08-09T19:08:03.861Z,27.26
2022-08-09T19:10:37.394Z,27.19
2022-08-09T19:13:17.047Z,27.13
2022-08-09T19:15:49.297Z,27.07
2022-08-09T19:18:33.778Z,26.99
2022-08-09T19:21:09.407Z,26.93
2022-08-09T19:24:36.457Z,26.90
2022-08-09T19:26:31.094Z,26.84
2022-08-09T19:29:18.053Z,26.78
2022-08-09T19:31:46.471Z,26.69
2022-08-09T19:34:21.481Z,26.62
2022-08-09T19:36:50.130Z,26.54
2022-08-09T19:39:16.643Z,26.48
2022-08-09T19:41:43.159Z,26.43
2022-08-09T19:44:12.197Z,26.38
2022-08-09T19:46:51.008Z,26.33
2022-08-09T19:50:09.151Z,26.25
2022-08-09T19:52:08.444Z,26.21
2022-08-09T19:54:35.580Z,26.14
2022-08-09T19:57:03.407Z,26.07
2022-08-09T19:59:57.779Z,26.04
2022-08-09T20:04:23.945Z,26.01
2022-08-09T20:05:10.305Z,25.98
2022-08-09T20:07:58.674Z,25.92
2022-08-09T20:10:34.418Z,25.85
2022-08-09T20:13:05.885Z,25.82
2022-08-09T20:16:38.491Z,25.76
2022-08-09T20:18:20.172Z,25.68
2022-08-09T20:20:51.045Z,25.66
2022-08-09T20:23:19.496Z,25.64
2022-08-09T20:25:51.889Z,25.61
2022-08-09T20:28:27.774Z,25.55
2022-08-09T20:31:00.688Z,25.46
2022-08-09T20:33:29.388Z,25.38
2022-08-09T20:36:07.796Z,25.29
2022-08-09T20:38:50.393Z,25.28
2022-08-09T20:41:20.921Z,25.27
2022-08-09T20:44:02.208Z,25.27
2022-08-09T20:46:42.089Z,25.24
2022-08-09T20:49:11.300Z,25.18
2022-08-09T20:51:41.408Z,25.15
2022-08-09T20:54:12.799Z,25.13
2022-08-09T20:56:46.987Z,25.09
2022-08-09T20:59:17.228Z,25.04
2022-08-09T21:01:50.778Z,25.02
2022-08-09T21:05:57.786Z,25.02
2022-08-09T21:07:12.254Z,25.01
2022-08-09T21:09:45.715Z,24.98
2022-08-09T21:12:21.808Z,24.95
2022-08-09T21:14:49.089Z,24.91
2022-08-09T21:18:23.239Z,24.85
2022-08-09T21:20:05.278Z,24.77
2022-08-09T21:22:53.947Z,24.69
2022-08-09T21:25:39.734Z,24.62
2022-08-09T21:28:12.041Z,24.56
2022-08-09T21:30:42.459Z,24.52
2022-08-09T21:33:09.854Z,24.46
2022-08-09T21:35:40.723Z,24.39
2022-08-09T21:38:21.078Z,24.31
2022-08-09T21:40:58.713Z,24.27
2022-08-09T21:43:55.966Z,24.26
2022-08-09T21:46:11.979Z,24.26
2022-08-09T21:48:42.606Z,24.28
2022-08-09T21:51:23.880Z,24.26
2022-08-09T21:53:54.902Z,24.20
2022-08-09T21:56:33.842Z,24.11
2022-08-09T21:59:09.459Z,24.05
2022-08-09T22:01:59.448Z,24.01
2022-08-09T22:04:22.773Z,23.94
2022-08-09T22:07:09.179Z,23.91
2022-08-09T22:09:38.639Z,23.87
2022-08-09T22:12:18.476Z,23.78
2022-08-09T22:14:46.078Z,23.74
2022-08-09T22:17:13.162Z,23.69
2022-08-09T22:19:59.163Z,23.64
2022-08-09T22:22:27.714Z,23.54
2022-08-09T22:26:05.282Z,23.47
2022-08-09T22:27:42.140Z,23.43
2022-08-09T22:30:09.858Z,23.42
2022-08-09T22:32:37.192Z,23.38
2022-08-09T22:35:06.801Z,23.36
2022-08-09T22:38:06.499Z,23.33
2022-08-09T22:40:34.858Z,23.28
2022-08-09T22:43:16.047Z,23.24
2022-08-09T22:48:11.234Z,23.20
2022-08-09T22:48:36.810Z,23.15
2022-08-09T22:51:10.421Z,23.10
2022-08-09T22:53:58.422Z,23.05
2022-08-09T22:56:33.225Z,23.04
2022-08-09T22:59:05.990Z,23.00
2022-08-09T23:01:48.273Z,22.99
2022-08-09T23:04:14.980Z,22.96
2022-08-09T23:07:01.444Z,22.92
2022-08-09T23:09:27.876Z,22.92
2022-08-09T23:11:54.439Z,22.90
2022-08-09T23:14:37.267Z,22.89
2022-08-09T23:17:07.387Z,22.86
2022-08-09T23:20:06.186Z,22.83
2022-08-09T23:22:20.189Z,22.80
2022-08-09T23:24:48.643Z,22.81
2022-08-09T23:27:15.642Z,22.77
2022-08-09T23:29:42.076Z,22.74
2022-08-09T23:32:08.736Z,22.67
2022-08-09T23:34:35.172Z,22.65
2022-08-09T23:37:01.580Z,22.62
2022-08-09T23:39:28.093Z,22.57
2022-08-09T23:41:54.613Z,22.54
2022-08-09T23:44:21.037Z,22.52
2022-08-09T23:46:52.712Z,22.52
2022-08-09T23:49:25.047Z,22.48
2022-08-09T23:51:52.349Z,22.39
2022-08-09T23:54:18.837Z,22.39
2022-08-09T23:56:54.088Z,22.38
2022-08-09T23:59:22.911Z,22.34
